createdAt,value
2023-01-25T00:00:24.776Z,-1.00
2023-01-25T00:05:26.414Z,-1.00
2023-01-25T00:10:28.089Z,-1.10
2023-01-25T00:15:30.810Z,-1.08
2023-01-25T00:20:32.410Z,-1.08
2023-01-25T00:25:34.277Z,-0.94
2023-01-25T00:30:35.891Z,-0.75
2023-01-25T00:35:38.722Z,-0.89
2023-01-25T00:40:40.349Z,-0.89
2023-01-25T00:45:42.000Z,-0.95
2023-01-25T00:50:44.059Z,-1.05
2023-01-25T00:55:53.088Z,-1.02
2023-01-25T01:00:55.948Z,-0.94
2023-01-25T01:06:24.050Z,-0.88
2023-01-25T01:11:27.778Z,-0.94
2023-01-25T01:16:29.463Z,-0.81
2023-01-25T01:21:31.300Z,-0.84
2023-01-25T01:26:33.015Z,-0.97
2023-01-25T01:31:34.727Z,-0.99
2023-01-25T01:36:51.621Z,-0.98
2023-01-25T01:41:53.894Z,-0.94
2023-01-25T01:46:58.765Z,-0.81
2023-01-25T01:52:10.766Z,-0.74
2023-01-25T01:57:15.999Z,-0.85
2023-01-25T02:02:18.477Z,-0.83
2023-01-25T02:07:27.529Z,-0.65
2023-01-25T02:12:29.850Z,-0.56
2023-01-25T02:17:35.403Z,-0.61
2023-01-25T02:22:47.685Z,-0.47
2023-01-25T02:27:56.468Z,-0.31
2023-01-25T02:32:58.314Z,-0.19
2023-01-25T02:38:00.144Z,-0.14
2023-01-25T02:43:03.260Z,-0.10
2023-01-25T02:48:05.521Z,-0.04
2023-01-25T02:53:07.399Z,-0.03
2023-01-25T02:58:09.405Z,-0.03
2023-01-25T03:03:11.523Z,-0.01
2023-01-25T03:08:13.770Z,-0.21
2023-01-25T03:13:16.384Z,-0.07
2023-01-25T03:18:18.619Z,-0.07
2023-01-25T03:23:22.303Z,0.01
2023-01-25T03:28:25.535Z,-0.12
2023-01-25T03:33:29.640Z,-0.10
2023-01-25T03:38:31.917Z,-0.18
2023-01-25T03:43:34.071Z,-0.08
2023-01-25T03:48:36.788Z,-0.06
2023-01-25T03:53:39.732Z,-0.22
2023-01-25T03:58:45.897Z,-0.12
2023-01-25T04:03:47.968Z,-0.06
2023-01-25T04:08:50.570Z,-0.04
2023-01-25T04:13:53.789Z,-0.06
2023-01-25T04:18:58.185Z,-0.11
2023-01-25T04:24:01.595Z,-0.12
2023-01-25T04:29:05.004Z,-0.21
2023-01-25T04:34:08.030Z,-0.41
2023-01-25T04:39:09.876Z,-0.39
2023-01-25T04:44:12.762Z,-0.44
2023-01-25T04:49:16.229Z,-0.47
2023-01-25T04:54:18.415Z,-0.53
2023-01-25T04:59:20.449Z,-0.43
2023-01-25T05:04:23.061Z,-0.33
2023-01-25T05:09:26.453Z,-0.40
2023-01-25T05:14:29.616Z,-0.36
2023-01-25T05:19:35.253Z,-0.29
2023-01-25T05:24:42.993Z,-0.37
2023-01-25T05:29:47.153Z,-0.31
2023-01-25T05:34:50.337Z,-0.24
2023-01-25T05:39:52.902Z,-0.09
2023-01-25T05:44:55.389Z,-0.24
2023-01-25T05:49:57.720Z,-0.29
2023-01-25T05:55:15.103Z,-0.42
2023-01-25T06:00:17.956Z,-0.49
2023-01-25T06:05:19.834Z,-0.50
2023-01-25T06:10:21.828Z,-0.41
2023-01-25T06:15:25.946Z,-0.42
2023-01-25T06:20:30.007Z,-0.42
2023-01-25T06:25:40.783Z,-0.33
2023-01-25T06:30:42.926Z,-0.29
2023-01-25T06:35:44.802Z,-0.36
2023-01-25T06:40:46.621Z,-0.45
2023-01-25T06:45:48.409Z,-0.39
2023-01-25T06:50:59.702Z,-0.34
2023-01-25T06:56:04.372Z,-0.24
2023-01-25T07:01:15.238Z,-0.28
2023-01-25T07:06:17.990Z,-0.24
2023-01-25T07:11:19.978Z,-0.21
2023-01-25T07:16:21.934Z,-0.13
2023-01-25T07:21:24.912Z,0.04
2023-01-25T07:26:27.181Z,0.05
2023-01-25T07:31:29.343Z,0.28
2023-01-25T07:36:31.511Z,0.38
2023-01-25T07:41:33.509Z,0.49
2023-01-25T07:46:35.334Z,0.17
2023-01-25T07:51:37.287Z,0.28
2023-01-25T07:56:40.697Z,0.49
2023-01-25T08:01:42.642Z,0.55
2023-01-25T08:06:46.619Z,0.75
2023-01-25T08:11:49.521Z,0.62
2023-01-25T08:16:51.451Z,0.63
2023-01-25T08:21:53.295Z,0.97
2023-01-25T08:26:55.100Z,1.23
2023-01-25T08:31:57.017Z,1.44
2023-01-25T08:36:58.921Z,1.11
2023-01-25T08:42:00.715Z,1.05
2023-01-25T08:47:02.499Z,1.21
2023-01-25T08:52:04.509Z,1.28
2023-01-25T08:57:06.345Z,1.41
2023-01-25T09:02:12.313Z,1.37
2023-01-25T09:07:14.145Z,1.51
2023-01-25T09:12:15.951Z,1.67
2023-01-25T09:17:17.759Z,1.98
2023-01-25T09:22:19.582Z,2.27
2023-01-25T09:27:21.403Z,2.30
2023-01-25T09:32:23.208Z,2.44
2023-01-25T09:37:27.805Z,2.69
2023-01-25T09:43:03.333Z,2.79
2023-01-25T09:48:14.175Z,2.83
2023-01-25T09:53:35.322Z,2.90
2023-01-25T09:58:44.984Z,2.56
2023-01-25T10:03:55.424Z,2.69
2023-01-25T10:09:18.800Z,2.77
2023-01-25T10:14:21.685Z,2.79
2023-01-25T10:19:36.099Z,2.53
2023-01-25T10:24:50.195Z,2.48
2023-01-25T10:29:56.968Z,2.39
2023-01-25T10:35:12.648Z,2.27
2023-01-25T10:40:30.887Z,2.32
2023-01-25T10:45:32.668Z,2.25
2023-01-25T10:50:43.983Z,2.14
2023-01-25T10:56:25.468Z,2.14
2023-01-25T11:01:32.986Z,1.98
2023-01-25T11:06:47.193Z,2.19
2023-01-25T11:11:57.804Z,2.22
2023-01-25T11:17:02.024Z,2.33
2023-01-25T11:22:24.083Z,2.52
2023-01-25T11:27:27.423Z,2.35
2023-01-25T11:32:29.475Z,2.42
2023-01-25T11:37:31.391Z,2.57
2023-01-25T11:43:10.746Z,2.48
2023-01-25T11:48:35.454Z,2.51
2023-01-25T11:54:13.633Z,2.42
2023-01-25T11:59:24.429Z,2.52
2023-01-25T12:05:12.696Z,2.55
2023-01-25T12:10:35.095Z,2.67
2023-01-25T12:15:55.085Z,2.84
2023-01-25T12:21:08.233Z,2.93
2023-01-25T12:26:27.232Z,2.83
2023-01-25T12:31:48.915Z,2.58
2023-01-25T12:36:51.478Z,2.48
2023-01-25T12:42:34.895Z,2.34
2023-01-25T12:47:46.179Z,2.11
2023-01-25T12:53:13.645Z,2.36
2023-01-25T12:58:55.343Z,2.16
2023-01-25T13:04:34.680Z,2.21
2023-01-25T13:09:36.449Z,2.05
2023-01-25T13:14:40.458Z,1.64
2023-01-25T13:19:43.299Z,1.54
2023-01-25T13:25:03.908Z,1.54
2023-01-25T13:30:30.842Z,1.56
2023-01-25T13:35:43.542Z,1.57
2023-01-25T13:40:45.785Z,1.72
2023-01-25T13:45:51.365Z,1.73
2023-01-25T13:51:04.527Z,1.76
2023-01-25T13:56:25.418Z,1.82
2023-01-25T14:01:29.334Z,1.91
2023-01-25T14:06:40.610Z,1.93
2023-01-25T14:12:02.414Z,1.86
2023-01-25T14:17:13.403Z,1.84
2023-01-25T14:22:33.815Z,1.68
2023-01-25T14:27:40.984Z,1.36
2023-01-25T14:32:42.775Z,1.27
2023-01-25T14:37:44.566Z,1.34
2023-01-25T14:42:46.949Z,1.38
2023-01-25T14:47:59.081Z,1.44
2023-01-25T14:53:25.140Z,1.47
2023-01-25T14:58:32.125Z,1.46
2023-01-25T15:03:33.960Z,1.52
2023-01-25T15:08:40.838Z,1.48
2023-01-25T15:13:42.664Z,1.41
2023-01-25T15:18:51.807Z,1.02
2023-01-25T15:23:56.024Z,0.86
2023-01-25T15:29:20.940Z,0.64
2023-01-25T15:34:35.141Z,0.36
2023-01-25T15:39:37.111Z,0.20
2023-01-25T15:44:38.916Z,0.11
2023-01-25T15:49:40.793Z,0.17
2023-01-25T15:54:51.741Z,0.15
2023-01-25T15:59:56.171Z,0.07
2023-01-25T16:04:57.986Z,0.02
2023-01-25T16:09:59.817Z,-0.09
2023-01-25T16:15:01.670Z,-0.09
2023-01-25T16:20:04.045Z,-0.04
2023-01-25T16:25:08.899Z,-0.02
2023-01-25T16:30:31.259Z,-0.07
2023-01-25T16:35:33.342Z,0.06
2023-01-25T16:40:39.889Z,0.13
2023-01-25T16:45:41.854Z,0.05
2023-01-25T16:50:43.719Z,-0.08
2023-01-25T16:55:45.514Z,0.11
2023-01-25T17:00:47.324Z,0.32
2023-01-25T17:05:49.094Z,0.41
2023-01-25T17:10:50.881Z,0.52
2023-01-25T17:15:56.617Z,0.61
2023-01-25T17:21:04.827Z,0.51
2023-01-25T17:26:09.686Z,0.27
2023-01-25T17:31:18.821Z,0.35
2023-01-25T17:36:21.192Z,0.49
2023-01-25T17:41:23.000Z,0.50
2023-01-25T17:46:26.481Z,0.28
2023-01-25T17:51:28.756Z,0.20
2023-01-25T17:56:30.860Z,0.44
2023-01-25T18:01:32.741Z,0.56
2023-01-25T18:06:35.125Z,0.56
2023-01-25T18:11:38.435Z,0.43
2023-01-25T18:16:41.408Z,0.39
2023-01-25T18:21:43.452Z,0.49
2023-01-25T18:26:45.273Z,0.65
2023-01-25T18:31:48.633Z,0.74
2023-01-25T18:36:53.399Z,0.62
2023-01-25T18:41:55.394Z,0.47
2023-01-25T18:46:57.435Z,0.41
2023-01-25T18:52:11.009Z,0.53
2023-01-25T18:57:14.464Z,0.62
2023-01-25T19:02:17.680Z,0.34
2023-01-25T19:07:19.587Z,0.38
2023-01-25T19:12:21.525Z,0.38
2023-01-25T19:17:23.318Z,0.49
2023-01-25T19:22:25.959Z,0.38
2023-01-25T19:27:29.455Z,0.24
2023-01-25T19:32:31.479Z,0.18
2023-01-25T19:37:33.858Z,0.34
2023-01-25T19:42:36.687Z,0.37
2023-01-25T19:47:39.141Z,0.37
2023-01-25T19:52:41.081Z,0.30
2023-01-25T19:57:43.183Z,0.36
2023-01-25T20:02:47.550Z,0.29
2023-01-25T20:07:49.477Z,0.25
2023-01-25T20:12:51.277Z,0.30
2023-01-25T20:17:53.186Z,0.37
2023-01-25T20:22:55.213Z,0.41
2023-01-25T20:27:56.996Z,0.48
2023-01-25T20:32:59.185Z,0.46
2023-01-25T20:38:01.053Z,0.57
2023-01-25T20:43:02.915Z,0.55
2023-01-25T20:48:04.945Z,0.40
2023-01-25T20:53:06.794Z,0.38
2023-01-25T20:58:08.858Z,0.35
2023-01-25T21:03:10.681Z,0.33
2023-01-25T21:08:12.589Z,0.18
2023-01-25T21:13:14.398Z,0.17
2023-01-25T21:18:16.696Z,0.25
2023-01-25T21:23:18.548Z,0.27
2023-01-25T21:28:20.380Z,0.26
2023-01-25T21:33:22.478Z,0.34
2023-01-25T21:38:25.268Z,0.40
2023-01-25T21:43:27.063Z,0.35
2023-01-25T21:48:47.345Z,0.18
2023-01-25T21:53:49.219Z,0.07
2023-01-25T21:58:51.263Z,0.20
2023-01-25T22:03:53.365Z,0.04
2023-01-25T22:08:55.247Z,0.20
2023-01-25T22:13:57.105Z,0.25
2023-01-25T22:19:00.156Z,0.18
2023-01-25T22:24:04.486Z,0.29
2023-01-25T22:29:09.470Z,0.38
2023-01-25T22:34:11.566Z,0.31
2023-01-25T22:39:14.929Z,0.27
2023-01-25T22:44:16.853Z,0.20
2023-01-25T22:49:18.724Z,0.17
2023-01-25T22:54:20.582Z,0.21
2023-01-25T22:59:22.384Z,0.21
2023-01-25T23:04:24.256Z,0.23
2023-01-25T23:09:26.111Z,0.17
2023-01-25T23:14:46.356Z,0.26
2023-01-25T23:19:48.176Z,0.28
2023-01-25T23:24:50.017Z,0.23
2023-01-25T23:29:51.948Z,0.24
2023-01-25T23:34:53.812Z,0.24
2023-01-25T23:39:55.866Z,0.17
2023-01-25T23:44:57.663Z,0.16
2023-01-25T23:49:59.447Z,0.21
2023-01-25T23:55:01.600Z,0.23
